sensor_id;sensor_type;location;lat;lon;timestamp;temperature;humidity
19516;DHT22;9901;47.448;7.692;2022-11-10T10:59:31;16.30;99.90
19516;DHT22;9901;47.448;7.692;2022-11-10T11:13:32;16.70;99.90
19516;DHT22;9901;47.448;7.692;2022-11-10T11:17:29;17.10;99.90
19516;DHT22;9901;47.448;7.692;2022-11-10T11:48:47;17.90;99.90
19516;DHT22;9901;47.448;7.692;2022-11-10T11:52:33;17.90;99.90
19516;DHT22;9901;47.448;7.692;2022-11-10T12:09:01;18.20;99.90
19516;DHT22;9901;47.448;7.692;2022-11-10T12:12:20;18.30;99.90
19516;DHT22;9901;47.448;7.692;2022-11-10T12:15:39;18.30;99.90
19516;DHT22;9901;47.448;7.692;2022-11-10T12:28:45;18.00;99.90
19516;DHT22;9901;47.448;7.692;2022-11-10T12:31:27;18.00;99.90
19516;DHT22;9901;47.448;7.692;2022-11-10T12:37:54;18.00;99.90
19516;DHT22;9901;47.448;7.692;2022-11-10T12:41:02;18.10;99.90
19516;DHT22;9901;47.448;7.692;2022-11-10T12:43:59;18.00;99.90
19516;DHT22;9901;47.448;7.692;2022-11-10T12:47:05;18.00;99.90
19516;DHT22;9901;47.448;7.692;2022-11-10T12:50:08;17.80;99.90
19516;DHT22;9901;47.448;7.692;2022-11-10T12:53:19;17.80;99.90
19516;DHT22;9901;47.448;7.692;2022-11-10T12:58:39;17.70;99.90
19516;DHT22;9901;47.448;7.692;2022-11-10T13:01:32;18.10;99.90
19516;DHT22;9901;47.448;7.692;2022-11-10T13:04:24;18.10;99.90
19516;DHT22;9901;47.448;7.692;2022-11-10T13:07:25;18.30;99.90
19516;DHT22;9901;47.448;7.692;2022-11-10T13:10:26;18.30;99.90
19516;DHT22;9901;47.448;7.692;2022-11-10T13:15:47;18.30;99.90
19516;DHT22;9901;47.448;7.692;2022-11-10T13:26:55;17.80;99.90
19516;DHT22;9901;47.448;7.692;2022-11-10T13:34:54;17.60;99.90
19516;DHT22;9901;47.448;7.692;2022-11-10T13:40:44;17.60;99.90
19516;DHT22;9901;47.448;7.692;2022-11-10T13:43:22;17.60;99.90
19516;DHT22;9901;47.448;7.692;2022-11-10T13:46:16;17.60;99.90
19516;DHT22;9901;47.448;7.692;2022-11-10T13:49:41;17.40;99.90
19516;DHT22;9901;47.448;7.692;2022-11-10T13:58:59;17.00;99.90
19516;DHT22;9901;47.448;7.692;2022-11-10T14:02:34;16.80;99.90
19516;DHT22;9901;47.448;7.692;2022-11-10T14:08:29;16.70;99.90
19516;DHT22;9901;47.448;7.692;2022-11-10T14:11:19;16.50;99.90
19516;DHT22;9901;47.448;7.692;2022-11-10T14:17:22;16.40;99.90
19516;DHT22;9901;47.448;7.692;2022-11-10T14:21:02;16.30;99.90
19516;DHT22;9901;47.448;7.692;2022-11-10T14:26:55;16.10;99.90
19516;DHT22;9901;47.448;7.692;2022-11-10T14:29:43;16.00;99.90
19516;DHT22;9901;47.448;7.692;2022-11-10T14:32:19;15.90;99.90
19516;DHT22;9901;47.448;7.692;2022-11-10T14:34:57;15.80;99.90
19516;DHT22;9901;47.448;7.692;2022-11-10T14:37:50;15.80;99.90
19516;DHT22;9901;47.448;7.692;2022-11-10T14:41:17;15.70;99.90
19516;DHT22;9901;47.448;7.692;2022-11-10T14:44:21;15.60;99.90
19516;DHT22;9901;47.448;7.692;2022-11-10T14:47:36;15.60;99.90
19516;DHT22;9901;47.448;7.692;2022-11-10T14:50:33;15.40;99.90
19516;DHT22;9901;47.448;7.692;2022-11-10T14:55:46;15.30;99.90
19516;DHT22;9901;47.448;7.692;2022-11-10T14:58:52;15.20;99.90
19516;DHT22;9901;47.448;7.692;2022-11-10T15:01:40;15.20;99.90
19516;DHT22;9901;47.448;7.692;2022-11-10T15:07:25;15.10;99.90
19516;DHT22;9901;47.448;7.692;2022-11-10T15:10:22;15.00;99.90
19516;DHT22;9901;47.448;7.692;2022-11-10T15:13:32;14.90;99.90
19516;DHT22;9901;47.448;7.692;2022-11-10T15:21:49;14.60;99.90
19516;DHT22;9901;47.448;7.692;2022-11-10T15:24:45;14.50;99.90
19516;DHT22;9901;47.448;7.692;2022-11-10T15:27:29;14.40;99.90
19516;DHT22;9901;47.448;7.692;2022-11-10T15:30:01;14.30;99.90
19516;DHT22;9901;47.448;7.692;2022-11-10T15:36:30;14.10;99.90
19516;DHT22;9901;47.448;7.692;2022-11-10T15:41:43;13.90;99.90
19516;DHT22;9901;47.448;7.692;2022-11-10T15:44:24;13.70;99.90
19516;DHT22;9901;47.448;7.692;2022-11-10T15:46:52;13.60;99.90
19516;DHT22;9901;47.448;7.692;2022-11-10T15:49:34;13.50;99.90
19516;DHT22;9901;47.448;7.692;2022-11-10T15:52:16;13.40;99.90
19516;DHT22;9901;47.448;7.692;2022-11-10T15:54:43;13.30;99.90
19516;DHT22;9901;47.448;7.692;2022-11-10T15:57:14;13.20;99.90
19516;DHT22;9901;47.448;7.692;2022-11-10T15:59:40;13.10;99.90
19516;DHT22;9901;47.448;7.692;2022-11-10T16:02:21;13.00;99.90
19516;DHT22;9901;47.448;7.692;2022-11-10T16:04:49;12.90;99.90
19516;DHT22;9901;47.448;7.692;2022-11-10T16:07:15;12.80;99.90
19516;DHT22;9901;47.448;7.692;2022-11-10T16:09:41;12.70;99.90
19516;DHT22;9901;47.448;7.692;2022-11-10T16:12:14;12.70;99.90
19516;DHT22;9901;47.448;7.692;2022-11-10T16:14:43;12.60;99.90
19516;DHT22;9901;47.448;7.692;2022-11-10T16:17:11;12.60;99.90
19516;DHT22;9901;47.448;7.692;2022-11-10T16:19:37;12.50;99.90
19516;DHT22;9901;47.448;7.692;2022-11-10T16:22:03;12.40;99.90
19516;DHT22;9901;47.448;7.692;2022-11-10T16:24:29;12.40;99.90
19516;DHT22;9901;47.448;7.692;2022-11-10T16:26:55;12.30;99.90
19516;DHT22;9901;47.448;7.692;2022-11-10T16:29:24;12.30;99.90
19516;DHT22;9901;47.448;7.692;2022-11-10T16:31:50;12.20;99.90
19516;DHT22;9901;47.448;7.692;2022-11-10T16:34:16;12.10;99.90
19516;DHT22;9901;47.448;7.692;2022-11-10T16:36:43;12.10;99.90
19516;DHT22;9901;47.448;7.692;2022-11-10T16:39:13;12.00;99.90
19516;DHT22;9901;47.448;7.692;2022-11-10T16:41:39;11.90;99.90
19516;DHT22;9901;47.448;7.692;2022-11-10T16:44:13;11.80;99.90
19516;DHT22;9901;47.448;7.692;2022-11-10T16:46:55;11.50;99.90
19516;DHT22;9901;47.448;7.692;2022-11-10T16:51:50;11.70;99.90
19516;DHT22;9901;47.448;7.692;2022-11-10T16:54:16;11.60;99.90
19516;DHT22;9901;47.448;7.692;2022-11-10T16:56:42;11.60;99.90
19516;DHT22;9901;47.448;7.692;2022-11-10T16:59:07;11.60;99.90
19516;DHT22;9901;47.448;7.692;2022-11-10T17:04:07;11.50;99.90
19516;DHT22;9901;47.448;7.692;2022-11-10T17:06:34;11.50;99.90
19516;DHT22;9901;47.448;7.692;2022-11-10T17:09:19;11.40;99.90
19516;DHT22;9901;47.448;7.692;2022-11-10T17:11:46;11.40;99.90
19516;DHT22;9901;47.448;7.692;2022-11-10T17:14:12;11.40;99.90
19516;DHT22;9901;47.448;7.692;2022-11-10T17:16:41;11.30;99.90
19516;DHT22;9901;47.448;7.692;2022-11-10T17:19:19;11.30;99.90
19516;DHT22;9901;47.448;7.692;2022-11-10T17:21:46;11.20;99.90
19516;DHT22;9901;47.448;7.692;2022-11-10T17:24:14;11.10;99.90
19516;DHT22;9901;47.448;7.692;2022-11-10T17:26:41;11.00;99.90
19516;DHT22;9901;47.448;7.692;2022-11-10T17:29:17;11.00;99.90
19516;DHT22;9901;47.448;7.692;2022-11-10T17:31:43;11.00;99.90
19516;DHT22;9901;47.448;7.692;2022-11-10T17:34:09;10.90;99.90
19516;DHT22;9901;47.448;7.692;2022-11-10T17:36:37;10.90;99.90
19516;DHT22;9901;47.448;7.692;2022-11-10T17:39:04;10.90;99.90
19516;DHT22;9901;47.448;7.692;2022-11-10T17:41:33;10.90;99.90
19516;DHT22;9901;47.448;7.692;2022-11-10T17:43:59;10.90;99.90
19516;DHT22;9901;47.448;7.692;2022-11-10T17:46:24;10.80;99.90
19516;DHT22;9901;47.448;7.692;2022-11-10T17:48:52;10.80;99.90
19516;DHT22;9901;47.448;7.692;2022-11-10T17:51:20;10.80;99.90
19516;DHT22;9901;47.448;7.692;2022-11-10T17:53:49;10.70;99.90
19516;DHT22;9901;47.448;7.692;2022-11-10T17:56:17;10.70;99.90
19516;DHT22;9901;47.448;7.692;2022-11-10T17:58:43;10.70;99.90
19516;DHT22;9901;47.448;7.692;2022-11-10T18:01:18;10.60;99.90
19516;DHT22;9901;47.448;7.692;2022-11-10T18:03:46;10.50;99.90
19516;DHT22;9901;47.448;7.692;2022-11-10T18:06:15;10.50;99.90
19516;DHT22;9901;47.448;7.692;2022-11-10T18:08:42;10.60;99.90
19516;DHT22;9901;47.448;7.692;2022-11-10T18:11:10;10.50;99.90
19516;DHT22;9901;47.448;7.692;2022-11-10T18:13:37;10.50;99.90
19516;DHT22;9901;47.448;7.692;2022-11-10T18:16:04;10.40;99.90
19516;DHT22;9901;47.448;7.692;2022-11-10T18:18:37;10.40;99.90
19516;DHT22;9901;47.448;7.692;2022-11-10T18:21:04;10.30;99.90
19516;DHT22;9901;47.448;7.692;2022-11-10T18:23:30;10.30;99.90
19516;DHT22;9901;47.448;7.692;2022-11-10T18:26:02;10.30;99.90
19516;DHT22;9901;47.448;7.692;2022-11-10T18:28:28;10.20;99.90
19516;DHT22;9901;47.448;7.692;2022-11-10T18:30:54;10.20;99.90
19516;DHT22;9901;47.448;7.692;2022-11-10T18:33:20;10.10;99.90
19516;DHT22;9901;47.448;7.692;2022-11-10T18:35:45;10.10;99.90
19516;DHT22;9901;47.448;7.692;2022-11-10T18:38:11;10.10;99.90
19516;DHT22;9901;47.448;7.692;2022-11-10T18:40:38;10.00;99.90
19516;DHT22;9901;47.448;7.692;2022-11-10T18:43:06;10.00;99.90
19516;DHT22;9901;47.448;7.692;2022-11-10T18:45:32;9.90;99.90
19516;DHT22;9901;47.448;7.692;2022-11-10T18:48:01;9.90;99.90
19516;DHT22;9901;47.448;7.692;2022-11-10T18:50:28;9.90;99.90
19516;DHT22;9901;47.448;7.692;2022-11-10T18:52:53;9.80;99.90
19516;DHT22;9901;47.448;7.692;2022-11-10T18:55:19;9.80;99.90
19516;DHT22;9901;47.448;7.692;2022-11-10T18:57:45;9.80;99.90
19516;DHT22;9901;47.448;7.692;2022-11-10T19:00:11;9.70;99.90
19516;DHT22;9901;47.448;7.692;2022-11-10T19:02:37;9.70;99.90
19516;DHT22;9901;47.448;7.692;2022-11-10T19:05:03;9.60;99.90
19516;DHT22;9901;47.448;7.692;2022-11-10T19:07:32;9.50;99.90
19516;DHT22;9901;47.448;7.692;2022-11-10T19:09:58;9.50;99.90
19516;DHT22;9901;47.448;7.692;2022-11-10T19:12:24;9.50;99.90
19516;DHT22;9901;47.448;7.692;2022-11-10T19:14:50;9.50;99.90
19516;DHT22;9901;47.448;7.692;2022-11-10T19:17:16;9.50;99.90
19516;DHT22;9901;47.448;7.692;2022-11-10T19:19:44;9.50;99.90
19516;DHT22;9901;47.448;7.692;2022-11-10T19:22:10;9.40;99.90
19516;DHT22;9901;47.448;7.692;2022-11-10T19:24:36;9.40;99.90
19516;DHT22;9901;47.448;7.692;2022-11-10T19:27:01;9.30;99.90
19516;DHT22;9901;47.448;7.692;2022-11-10T19:29:27;9.30;99.90
19516;DHT22;9901;47.448;7.692;2022-11-10T19:31:56;9.30;99.90
19516;DHT22;9901;47.448;7.692;2022-11-10T19:34:24;9.40;99.90
19516;DHT22;9901;47.448;7.692;2022-11-10T19:36:50;9.40;99.90
19516;DHT22;9901;47.448;7.692;2022-11-10T19:39:16;9.20;99.90
19516;DHT22;9901;47.448;7.692;2022-11-10T19:41:44;9.10;99.90
19516;DHT22;9901;47.448;7.692;2022-11-10T19:44:10;9.00;99.90
19516;DHT22;9901;47.448;7.692;2022-11-10T19:46:36;9.10;99.90
19516;DHT22;9901;47.448;7.692;2022-11-10T19:49:03;9.00;99.90
19516;DHT22;9901;47.448;7.692;2022-11-10T19:51:30;9.00;99.90
19516;DHT22;9901;47.448;7.692;2022-11-10T19:54:01;9.00;99.90
19516;DHT22;9901;47.448;7.692;2022-11-10T19:56:28;8.90;99.90
19516;DHT22;9901;47.448;7.692;2022-11-10T19:58:54;9.00;99.90
19516;DHT22;9901;47.448;7.692;2022-11-10T20:01:21;8.90;99.90
19516;DHT22;9901;47.448;7.692;2022-11-10T20:03:47;8.90;99.90
19516;DHT22;9901;47.448;7.692;2022-11-10T20:06:16;8.90;99.90
19516;DHT22;9901;47.448;7.692;2022-11-10T20:08:43;8.90;99.90
19516;DHT22;9901;47.448;7.692;2022-11-10T20:11:12;8.90;99.90
19516;DHT22;9901;47.448;7.692;2022-11-10T20:13:38;8.90;99.90
19516;DHT22;9901;47.448;7.692;2022-11-10T20:16:09;8.90;99.90
19516;DHT22;9901;47.448;7.692;2022-11-10T20:18:39;8.80;99.90
19516;DHT22;9901;47.448;7.692;2022-11-10T20:21:13;8.80;99.90
19516;DHT22;9901;47.448;7.692;2022-11-10T20:23:39;8.80;99.90
19516;DHT22;9901;47.448;7.692;2022-11-10T20:26:08;8.80;99.90
19516;DHT22;9901;47.448;7.692;2022-11-10T20:28:35;8.80;99.90
19516;DHT22;9901;47.448;7.692;2022-11-10T20:31:08;8.80;99.90
19516;DHT22;9901;47.448;7.692;2022-11-10T20:33:36;8.80;99.90
19516;DHT22;9901;47.448;7.692;2022-11-10T20:36:14;8.70;99.90
19516;DHT22;9901;47.448;7.692;2022-11-10T20:38:40;8.70;99.90
19516;DHT22;9901;47.448;7.692;2022-11-10T20:41:09;8.70;99.90
19516;DHT22;9901;47.448;7.692;2022-11-10T20:43:39;8.70;99.90
19516;DHT22;9901;47.448;7.692;2022-11-10T20:46:06;8.60;99.90
19516;DHT22;9901;47.448;7.692;2022-11-10T20:48:33;8.60;99.90
19516;DHT22;9901;47.448;7.692;2022-11-10T20:51:00;8.60;99.90
19516;DHT22;9901;47.448;7.692;2022-11-10T20:53:28;8.50;99.90
19516;DHT22;9901;47.448;7.692;2022-11-10T20:55:58;8.60;99.90
19516;DHT22;9901;47.448;7.692;2022-11-10T20:58:25;8.60;99.90
19516;DHT22;9901;47.448;7.692;2022-11-10T21:00:51;8.60;99.90
19516;DHT22;9901;47.448;7.692;2022-11-10T21:03:17;8.60;99.90
19516;DHT22;9901;47.448;7.692;2022-11-10T21:05:43;8.50;99.90
19516;DHT22;9901;47.448;7.692;2022-11-10T21:08:09;8.50;99.90
19516;DHT22;9901;47.448;7.692;2022-11-10T21:10:35;8.50;99.90
19516;DHT22;9901;47.448;7.692;2022-11-10T21:13:01;8.40;99.90
19516;DHT22;9901;47.448;7.692;2022-11-10T21:15:38;8.40;99.90
19516;DHT22;9901;47.448;7.692;2022-11-10T21:18:04;8.40;99.90
19516;DHT22;9901;47.448;7.692;2022-11-10T21:20:31;8.40;99.90
19516;DHT22;9901;47.448;7.692;2022-11-10T21:22:57;8.40;99.90
19516;DHT22;9901;47.448;7.692;2022-11-10T21:25:23;8.30;99.90
19516;DHT22;9901;47.448;7.692;2022-11-10T21:27:49;8.40;99.90
19516;DHT22;9901;47.448;7.692;2022-11-10T21:30:18;8.30;99.90
19516;DHT22;9901;47.448;7.692;2022-11-10T21:32:48;8.30;99.90
19516;DHT22;9901;47.448;7.692;2022-11-10T21:35:14;8.30;99.90
19516;DHT22;9901;47.448;7.692;2022-11-10T21:40:07;8.30;99.90
19516;DHT22;9901;47.448;7.692;2022-11-10T21:42:33;8.20;99.90
19516;DHT22;9901;47.448;7.692;2022-11-10T21:44:59;8.20;99.90
19516;DHT22;9901;47.448;7.692;2022-11-10T21:47:25;8.10;99.90
19516;DHT22;9901;47.448;7.692;2022-11-10T21:49:53;8.10;99.90
19516;DHT22;9901;47.448;7.692;2022-11-10T21:52:19;8.10;99.90
19516;DHT22;9901;47.448;7.692;2022-11-10T21:54:45;8.10;99.90
19516;DHT22;9901;47.448;7.692;2022-11-10T21:57:10;8.10;99.90
19516;DHT22;9901;47.448;7.692;2022-11-10T21:59:39;8.10;99.90
19516;DHT22;9901;47.448;7.692;2022-11-10T22:02:06;8.00;99.90
19516;DHT22;9901;47.448;7.692;2022-11-10T22:04:32;8.00;99.90
19516;DHT22;9901;47.448;7.692;2022-11-10T22:06:58;8.00;99.90
19516;DHT22;9901;47.448;7.692;2022-11-10T22:09:42;8.00;99.90
19516;DHT22;9901;47.448;7.692;2022-11-10T22:12:26;8.00;99.90
19516;DHT22;9901;47.448;7.692;2022-11-10T22:15:13;8.00;99.90
19516;DHT22;9901;47.448;7.692;2022-11-10T22:17:58;8.00;99.90
19516;DHT22;9901;47.448;7.692;2022-11-10T22:20:43;7.90;99.90
19516;DHT22;9901;47.448;7.692;2022-11-10T22:23:10;7.90;99.90
19516;DHT22;9901;47.448;7.692;2022-11-10T22:25:36;7.90;99.90
19516;DHT22;9901;47.448;7.692;2022-11-10T22:28:04;7.80;99.90
19516;DHT22;9901;47.448;7.692;2022-11-10T22:30:30;7.80;99.90
19516;DHT22;9901;47.448;7.692;2022-11-10T22:32:56;7.80;99.90
19516;DHT22;9901;47.448;7.692;2022-11-10T22:35:22;7.70;99.90
19516;DHT22;9901;47.448;7.692;2022-11-10T22:38:07;7.70;99.90
19516;DHT22;9901;47.448;7.692;2022-11-10T22:40:34;7.70;99.90
19516;DHT22;9901;47.448;7.692;2022-11-10T22:43:20;7.70;99.90
19516;DHT22;9901;47.448;7.692;2022-11-10T22:48:34;7.60;99.90
19516;DHT22;9901;47.448;7.692;2022-11-10T22:51:00;7.60;99.90
19516;DHT22;9901;47.448;7.692;2022-11-10T22:53:26;7.60;99.90
19516;DHT22;9901;47.448;7.692;2022-11-10T22:55:52;7.60;99.90
19516;DHT22;9901;47.448;7.692;2022-11-10T22:58:18;7.60;99.90
19516;DHT22;9901;47.448;7.692;2022-11-10T23:00:44;7.60;99.90
19516;DHT22;9901;47.448;7.692;2022-11-10T23:03:13;7.50;99.90
19516;DHT22;9901;47.448;7.692;2022-11-10T23:08:05;7.50;99.90
19516;DHT22;9901;47.448;7.692;2022-11-10T23:10:31;7.60;99.90
19516;DHT22;9901;47.448;7.692;2022-11-10T23:12:56;7.60;99.90
19516;DHT22;9901;47.448;7.692;2022-11-10T23:17:49;7.60;99.90
19516;DHT22;9901;47.448;7.692;2022-11-10T23:20:16;7.60;99.90
19516;DHT22;9901;47.448;7.692;2022-11-10T23:22:42;7.60;99.90
19516;DHT22;9901;47.448;7.692;2022-11-10T23:25:07;7.50;99.90
19516;DHT22;9901;47.448;7.692;2022-11-10T23:27:33;7.50;99.90
19516;DHT22;9901;47.448;7.692;2022-11-10T23:29:59;7.50;99.90
19516;DHT22;9901;47.448;7.692;2022-11-10T23:34:52;7.50;99.90
19516;DHT22;9901;47.448;7.692;2022-11-10T23:37:20;7.50;99.90
19516;DHT22;9901;47.448;7.692;2022-11-10T23:39:46;7.50;99.90
19516;DHT22;9901;47.448;7.692;2022-11-10T23:42:12;7.50;99.90
19516;DHT22;9901;47.448;7.692;2022-11-10T23:44:40;7.40;99.90
19516;DHT22;9901;47.448;7.692;2022-11-10T23:47:05;7.50;99.90
19516;DHT22;9901;47.448;7.692;2022-11-10T23:49:31;7.50;99.90
19516;DHT22;9901;47.448;7.692;2022-11-10T23:51:57;7.40;99.90
19516;DHT22;9901;47.448;7.692;2022-11-10T23:54:23;7.50;99.90
19516;DHT22;9901;47.448;7.692;2022-11-10T23:56:49;7.50;99.90
19516;DHT22;9901;47.448;7.692;2022-11-10T23:59:14;7.40;99.90
